Aérodrome :







RETROUVEZ-NOUS SUR...

 
LOGIN :

S'inscrire | Disclaimer

   EN    FR    IT 

 









Légende :    VFR   VFR Marginal   IFR   IFR Intensif   IFR Très Intensif
Visi : 
Plafond : 
>= 8 km
>= 3000ft
5 à 8 km
1000 à 3000 ft
1500m à 5 km
500 à 1000 ft
800 à 1500m
200 à 500 ft
< 800m
< 200 ft
Symboles :   Orages  Brouillard  Fortes neiges  Fortes précipitations  Vent > 20 kt






- Altitude de l'aérodrome : 988 ft


KFVE - Northern Aroostook Regional

DERNIER METAR :
  • 111953Z AUTO 35006KT 10SM FEW120 M06/M15 A3019 RMK AO2 SLP238 T10611150

METARs EXPIRÉS :
  • 111853Z AUTO 35010KT 10SM CLR M06/M16 A3019 RMK AO2 SLP237 T10561156
  • 111753Z AUTO 30008KT 280V340 10SM CLR M04/M15 A3017 RMK AO2 SLP232 T10441150 11044 21089 53007

TAF KFVE
Valide du 11 à 18h jusqu'au 12 à 18h UTC


111730Z 1118/1218 31006KT P6SM SCT080
FM112300 01003KT P6SM OVC060
FM120000 02003KT P6SM VCSH OVC035
FM120200 07003KT 2SM -SN OVC025
FM120600 06006KT 1/2SM SN BKN007 OVC010



MET'MAP, la Météo Aéronautique d'un coup d'oeil ! - Copyright ORBIFLY Décembre 2007 - Disclaimer

ORBIFLY MET'MAP TEAM :

Programmation & Développement : Alexandra Zaïnal
Conception & Développement : Baudouin d'Aumeries
Co-Programmation & Développement : Marc-Olivier Méhu
Soutien technique & logistique : Manuel Goepfert

Contact : metmap@orbifly.com




SOURCES & CREDITS :

   NOAA